• Join FlightAware (Why Join?)
  • Login
  • US Flag 
02:17PM EDT


 

Airport Tracker/Info


-or-


 

Live Flight TrackerFlight Track Log ✈ UCA3596 ✈ 03-Oct-2013 ✈ KBGM - KIAD

Flight Track Log - Related Links

Times and Time Zones

All times are in EDT time to prevent confusion due to time zone crossing. See the UCA3596 flight status page for this flight to view local times or setup timezone preferences in your user account.

Time Position Orientation Groundspeed Altitude Reporting Facility
EDT Latitude Longitude Course Direction KTS MPH feet Rate Location/Type
02:57PM 42.2475 -76.0456 292° West 170 196 3,700  Level New York Center
02:58PM 42.2658 -76.1058 292° West 175 201 5,200 1,620 Climbing New York Center
02:59PM 42.2733 -76.1653 280° West 175 201 7,000 1,500 Climbing New York Center
03:00PM 42.2503 -76.2194 240° Southwest 162 186 8,300 1,320 Climbing New York Center
03:01PM 42.2169 -76.2644 225° Southwest 162 186 9,700 1,500 Climbing New York Center
03:02PM 42.1658 -76.2881 199° South 172 198 11,300 1,440 Climbing New York Center
03:03PM 42.1208 -76.3178 206° Southwest 182 209 12,600 1,440 Climbing New York Center
03:04PM 42.0758 -76.3447 204° Southwest 187 215 14,200 1,440 Climbing New York Center
03:05PM 42.0328 -76.3719 205° Southwest 177 204 15,500 900 Climbing New York Center
03:06PM 41.9900 -76.3961 203° Southwest 177 204 16,000 240 Climbing New York Center
03:07PM 41.9342 -76.4306 205° Southwest 189 217 16,000  Level New York Center
03:08PM 41.8764 -76.4644 204° Southwest 218 251 16,000  Level New York Center
03:09PM 41.8164 -76.4983 203° Southwest 231 266 16,000  Level New York Center
03:10PM 41.7544 -76.5319 202° Southwest 236 272 16,000  Level New York Center
03:11PM 41.6942 -76.5711 206° Southwest 241 277 16,000  Level New York Center
03:12PM 41.6408 -76.6000 202° Southwest 236 272 16,000  Level New York Center
03:13PM 41.5786 -76.6333 202° Southwest 241 277 16,000  Level New York Center
03:14PM 41.5122 -76.6719 204° Southwest 236 272 16,000  Level New York Center
03:15PM 41.4519 -76.7108 206° Southwest 241 277 16,000  Level New York Center
03:16PM 41.3919 -76.7469 204° Southwest 241 277 16,000  Level New York Center
03:17PM 41.3319 -76.7803 203° Southwest 241 277 16,000  Level New York Center
03:18PM 41.2644 -76.7936 188° South 241 277 16,000  Level New York Center
03:19PM 41.1953 -76.8042 187° South 247 284 16,000  Level New York Center
03:20PM 41.1278 -76.8203 190° South 247 284 16,000  Level New York Center
03:21PM 41.0603 -76.8333 188° South 247 284 16,000  Level New York Center
03:22PM 40.9931 -76.8467 189° South 247 284 16,000  Level New York Center
03:23PM 40.9256 -76.8600 188° South 247 284 16,000  Level New York Center
03:24PM 40.8647 -76.8708 188° South 247 284 16,000  Level New York Center
03:25PM 40.7889 -76.8861 189° South 247 284 16,000  Level New York Center
03:26PM 40.7294 -76.9056 194° South 247 284 16,000  Level New York Center
03:27PM 40.6553 -76.9289 193° South 247 284 16,000  Level New York Center
03:28PM 40.5961 -76.9456 192° South 247 284 16,000  Level New York Center
03:29PM 40.5219 -76.9689 193° South 247 284 16,000  Level New York Center
03:30PM 40.4625 -76.9881 194° South 247 284 16,000 -600 Level New York Center
03:32PM 40.3333 -77.0333 195° South 277 319 14,400 -960 Descending Potomac TRACON
03:33PM 40.2500 -77.0500 189° South 277 319 13,400 -1,020 Descending Potomac TRACON
03:34PM 40.1833 -77.0667 191° South 272 313 12,400 -1,020 Descending Potomac TRACON
03:35PM 40.1167 -77.1000 201° Southwest 273 314 11,500 -1,020 Descending Potomac TRACON
03:36PM 40.0333 -77.1167 189° South 275 316 10,400 -1,020 Descending Potomac TRACON
03:37PM 39.9500 -77.1500 197° South 270 311 9,400 -780 Descending Potomac TRACON
03:38PM 39.8833 -77.1333 169° South 268 308 8,900 -720 Descending Potomac TRACON
03:39PM 39.8167 -77.1000 159° South 279 321 8,000 -480 Descending Potomac TRACON
03:40PM 39.7333 -77.1167 189° South 261 300 8,000 -60 Level Potomac TRACON
03:41PM 39.7000 -77.1833 237° Southwest 255 293 7,900 -540 Descending Potomac TRACON
03:42PM 39.6333 -77.2333 210° Southwest 275 316 7,000 -480 Descending Potomac TRACON
03:43PM 39.5833 -77.2667 207° Southwest 260 299 7,000  Level Potomac TRACON
03:44PM 39.5333 -77.3500 232° Southwest 250 288 7,000 -540 Level Potomac TRACON
03:45PM 39.4833 -77.4167 226° Southwest 262 302 6,000 -1,020 Descending Potomac TRACON
03:46PM 39.4167 -77.4333 191° South 258 297 5,000 -1,020 Descending Potomac TRACON
03:47PM 39.3500 -77.4333 180° South 250 288 4,000 -840 Descending Potomac TRACON
03:48PM 39.2833 -77.4333 180° South 242 278 3,500 -600 Descending Potomac TRACON
03:49PM 39.2167 -77.4333 180° South 241 277 2,900 -300 Descending Potomac TRACON
03:50PM 39.1500 -77.4333 180° South 237 273 3,000 -120 Climbing Potomac TRACON
03:51PM 39.0833 -77.4333 180° South 238 274 2,700 -720 Descending Potomac TRACON
03:52PM 39.0167 -77.4333 180° South 220 253 1,600 -900 Descending Potomac TRACON
03:53PM 38.9833 -77.4333 180° South 124 143 800 -720 Descending Potomac TRACON